createdAt,value
2023-05-22T00:01:56.863Z,96137.91
2023-05-22T00:04:24.118Z,96134.22
2023-05-22T00:06:51.004Z,96137.47
2023-05-22T00:09:18.240Z,96140.66
2023-05-22T00:11:45.197Z,96131.00
2023-05-22T00:14:13.827Z,96138.56
2023-05-22T00:16:41.395Z,96140.75
2023-05-22T00:19:13.629Z,96131.84
2023-05-22T00:21:40.859Z,96140.03
2023-05-22T00:24:07.920Z,96129.25
2023-05-22T00:26:34.731Z,96127.78
2023-05-22T00:29:01.511Z,96127.31
2023-05-22T00:31:28.356Z,96130.63
2023-05-22T00:33:55.168Z,96125.63
2023-05-22T00:36:22.129Z,96120.28
2023-05-22T00:38:48.888Z,96118.47
2023-05-22T00:41:15.770Z,96113.31
2023-05-22T00:43:42.564Z,96110.66
2023-05-22T00:46:10.117Z,96116.34
2023-05-22T00:48:36.987Z,96110.16
2023-05-22T00:51:04.410Z,96106.03
2023-05-22T00:53:31.819Z,96107.88
2023-05-22T00:55:59.987Z,96103.34
2023-05-22T00:58:27.638Z,96095.34
2023-05-22T01:00:55.759Z,96088.31
2023-05-22T01:03:26.858Z,96084.84
2023-05-22T01:05:55.284Z,96087.69
2023-05-22T01:08:22.304Z,96086.03
2023-05-22T01:10:57.112Z,96085.22
2023-05-22T01:13:34.570Z,96087.22
2023-05-22T01:16:30.041Z,96087.41
2023-05-22T01:19:05.435Z,96084.28
2023-05-22T01:21:47.409Z,96088.78
2023-05-22T01:24:46.080Z,96093.31
2023-05-22T01:27:46.887Z,96094.13
2023-05-22T01:30:19.742Z,96096.81
2023-05-22T01:32:48.480Z,96101.69
2023-05-22T01:38:56.711Z,96098.47
2023-05-22T01:41:23.691Z,96103.44
2023-05-22T01:43:50.825Z,96098.91
2023-05-22T01:46:17.651Z,96091.19
2023-05-22T01:48:44.787Z,96096.34
2023-05-22T01:51:32.584Z,96097.81
2023-05-22T01:54:43.058Z,96097.91
2023-05-22T01:57:22.198Z,96091.75
2023-05-22T01:59:54.699Z,96086.84
2023-05-22T02:02:23.715Z,96091.66
2023-05-22T02:04:59.019Z,96097.81
2023-05-22T02:07:26.278Z,96116.72
2023-05-22T02:09:55.864Z,96109.44
2023-05-22T02:12:24.113Z,96110.56
2023-05-22T02:14:51.518Z,96101.59
2023-05-22T02:17:18.378Z,96100.59
2023-05-22T02:19:45.458Z,96099.75
2023-05-22T02:22:15.024Z,96100.31
2023-05-22T02:24:48.893Z,96098.81
2023-05-22T02:27:16.996Z,96091.84
2023-05-22T02:29:43.854Z,96086.13
2023-05-22T02:32:10.869Z,96082.78
2023-05-22T02:34:38.099Z,96080.78
2023-05-22T02:37:05.541Z,96083.81
2023-05-22T02:39:32.338Z,96081.16
2023-05-22T02:41:59.116Z,96078.81
2023-05-22T02:44:26.030Z,96076.53
2023-05-22T02:46:52.957Z,96074.88
2023-05-22T02:49:19.740Z,96073.59
2023-05-22T02:51:47.977Z,96067.94
2023-05-22T02:54:16.352Z,96069.34
2023-05-22T02:56:43.798Z,96075.03
2023-05-22T02:59:10.616Z,96075.41
2023-05-22T03:01:38.981Z,96065.75
2023-05-22T03:04:06.697Z,96075.41
2023-05-22T03:06:35.444Z,96081.13
2023-05-22T03:09:04.078Z,96077.81
2023-05-22T03:11:31.739Z,96076.13
2023-05-22T03:13:58.645Z,96079.47
2023-05-22T03:16:26.844Z,96074.94
2023-05-22T03:19:11.228Z,96082.59
2023-05-22T03:21:38.764Z,96068.41
2023-05-22T03:24:06.180Z,96076.25
2023-05-22T03:26:33.658Z,96070.72
2023-05-22T03:29:00.506Z,96073.84
2023-05-22T03:31:29.657Z,96074.84
2023-05-22T03:33:56.439Z,96071.00
2023-05-22T03:36:23.500Z,96071.19
2023-05-22T03:38:50.409Z,96079.19
2023-05-22T03:41:17.801Z,96069.41
2023-05-22T03:43:45.275Z,96062.44
2023-05-22T03:46:12.240Z,96062.44
2023-05-22T03:48:39.556Z,96061.41
2023-05-22T03:51:06.673Z,96063.88
2023-05-22T03:53:33.474Z,96058.19
2023-05-22T03:56:00.277Z,96062.97
2023-05-22T03:58:27.308Z,96053.59
2023-05-22T04:00:55.797Z,96055.91
2023-05-22T04:03:22.878Z,96058.22
2023-05-22T04:05:49.868Z,96058.84
2023-05-22T04:08:16.789Z,96061.16
2023-05-22T04:10:46.707Z,96060.97
2023-05-22T04:13:14.356Z,96057.75
2023-05-22T04:15:46.299Z,96059.41
2023-05-22T04:18:13.942Z,96059.03
2023-05-22T04:20:41.325Z,96054.16
2023-05-22T04:23:08.180Z,96048.44
2023-05-22T04:25:34.969Z,96049.72
2023-05-22T04:28:04.724Z,96048.97
2023-05-22T04:30:37.682Z,96046.59
2023-05-22T04:33:05.741Z,96054.50
2023-05-22T04:35:32.780Z,96052.66
2023-05-22T04:38:02.899Z,96053.31
2023-05-22T04:40:30.542Z,96050.88
2023-05-22T04:43:00.067Z,96057.50
2023-05-22T04:45:29.119Z,96056.75
2023-05-22T04:47:56.631Z,96046.56
2023-05-22T04:50:24.260Z,96053.19
2023-05-22T04:52:51.422Z,96049.94
2023-05-22T04:55:19.347Z,96055.75
2023-05-22T04:57:47.565Z,96046.25
2023-05-22T05:00:17.084Z,96055.66
2023-05-22T05:02:44.192Z,96054.97
2023-05-22T05:05:11.177Z,96052.22
2023-05-22T05:07:39.660Z,96057.28
2023-05-22T05:10:07.462Z,96045.16
2023-05-22T05:12:34.480Z,96053.59
2023-05-22T05:15:01.472Z,96062.00
2023-05-22T05:17:28.970Z,96062.09
2023-05-22T05:19:55.939Z,96066.00
2023-05-22T05:22:23.121Z,96070.34
2023-05-22T05:24:50.042Z,96073.69
2023-05-22T05:27:16.977Z,96070.03
2023-05-22T05:29:43.931Z,96073.53
2023-05-22T05:32:12.731Z,96072.91
2023-05-22T05:34:39.526Z,96068.16
2023-05-22T05:37:06.355Z,96069.25
2023-05-22T05:39:33.113Z,96066.00
2023-05-22T05:42:00.367Z,96070.56
2023-05-22T05:44:27.362Z,96057.66
2023-05-22T05:46:54.909Z,96063.81
2023-05-22T05:49:22.714Z,96063.50
2023-05-22T05:51:49.554Z,96060.03
2023-05-22T05:54:16.515Z,96060.31
2023-05-22T05:56:43.921Z,96068.47
2023-05-22T05:59:10.767Z,96064.53
2023-05-22T06:01:38.840Z,96053.56
2023-05-22T06:04:05.916Z,96059.22
2023-05-22T06:06:36.548Z,96054.44
2023-05-22T06:09:07.064Z,96060.00
2023-05-22T06:11:34.203Z,96061.78
2023-05-22T06:14:05.116Z,96057.28
2023-05-22T06:16:32.085Z,96056.56
2023-05-22T06:18:59.860Z,96053.78
2023-05-22T06:21:26.969Z,96060.44
2023-05-22T06:23:53.749Z,96065.69
2023-05-22T06:26:20.617Z,96049.06
2023-05-22T06:28:47.422Z,96062.66
2023-05-22T06:31:14.533Z,96058.56
2023-05-22T06:33:43.420Z,96056.44
2023-05-22T06:36:11.701Z,96055.50
2023-05-22T06:38:39.417Z,96043.59
2023-05-22T06:41:06.585Z,96043.72
2023-05-22T06:43:33.667Z,96041.00
2023-05-22T06:46:00.630Z,96050.03
2023-05-22T06:48:27.594Z,96050.34
2023-05-22T06:50:54.384Z,96044.50
2023-05-22T06:53:21.169Z,96045.63
2023-05-22T06:55:48.059Z,96039.22
2023-05-22T06:58:15.154Z,96035.09
2023-05-22T07:00:42.116Z,96040.69
2023-05-22T07:03:09.195Z,96041.34
2023-05-22T07:05:36.111Z,96043.63
2023-05-22T07:08:02.986Z,96039.00
2023-05-22T07:10:29.894Z,96034.38
2023-05-22T07:12:56.756Z,96032.78
2023-05-22T07:15:23.494Z,96031.47
2023-05-22T07:17:50.349Z,96036.75
2023-05-22T07:20:17.882Z,96031.50
2023-05-22T07:22:44.757Z,96030.31
2023-05-22T07:25:11.597Z,96031.16
2023-05-22T07:27:38.360Z,96033.47
2023-05-22T07:30:05.814Z,96029.03
2023-05-22T07:32:32.718Z,96027.72
2023-05-22T07:34:59.469Z,96025.84
2023-05-22T07:37:26.313Z,96031.63
2023-05-22T07:39:53.083Z,96030.78
2023-05-22T07:42:19.960Z,96035.16
2023-05-22T07:44:48.108Z,96031.97
2023-05-22T07:47:15.010Z,96027.41
2023-05-22T07:49:41.766Z,96017.88
2023-05-22T07:52:08.613Z,96019.16
2023-05-22T07:54:35.378Z,96025.31
2023-05-22T07:57:03.764Z,96031.19
2023-05-22T07:59:30.672Z,96015.28
2023-05-22T08:01:58.329Z,96025.09
2023-05-22T08:04:26.255Z,96022.94
2023-05-22T08:06:53.342Z,96024.44
2023-05-22T08:09:21.740Z,96026.78
2023-05-22T08:11:48.550Z,96019.41
2023-05-22T08:14:15.527Z,96022.22
2023-05-22T08:16:42.373Z,96019.94
2023-05-22T08:19:09.294Z,96012.56
2023-05-22T08:21:37.871Z,96013.44
2023-05-22T08:24:04.898Z,96004.03
2023-05-22T08:26:33.470Z,96005.66
2023-05-22T08:29:01.227Z,96007.56
2023-05-22T08:31:31.106Z,95999.84
2023-05-22T08:34:02.795Z,95998.78
2023-05-22T08:36:31.838Z,96002.59
2023-05-22T08:38:58.614Z,95997.34
2023-05-22T08:41:37.085Z,96000.38
2023-05-22T08:44:09.170Z,95997.09
2023-05-22T08:46:48.509Z,96002.28
2023-05-22T08:49:17.559Z,96000.97
2023-05-22T08:54:36.012Z,95998.50
2023-05-22T08:57:07.469Z,95996.97
2023-05-22T08:59:41.137Z,95994.22
2023-05-22T09:02:11.916Z,95999.50
2023-05-22T09:04:43.020Z,95992.91
2023-05-22T09:07:16.953Z,95990.22
2023-05-22T09:09:51.937Z,95993.75
2023-05-22T09:12:32.286Z,95992.63
2023-05-22T09:15:09.056Z,95997.84
2023-05-22T09:20:22.983Z,96004.31
2023-05-22T09:22:50.004Z,95994.19
2023-05-22T09:28:11.378Z,95989.38
2023-05-22T09:30:41.081Z,95988.84
2023-05-22T09:33:20.140Z,95989.66
2023-05-22T09:35:55.290Z,95984.97
2023-05-22T09:38:35.644Z,95989.97
2023-05-22T09:41:09.609Z,95991.03
2023-05-22T09:44:02.474Z,95989.94
2023-05-22T09:46:40.542Z,95982.84
2023-05-22T09:49:07.377Z,95993.41
2023-05-22T09:51:42.338Z,95989.41
2023-05-22T09:54:13.996Z,95995.13
2023-05-22T09:56:47.266Z,95979.03
2023-05-22T09:59:17.486Z,95987.75
2023-05-22T10:01:56.388Z,95983.34
2023-05-22T10:04:37.233Z,95978.66
2023-05-22T10:07:15.686Z,95975.66
2023-05-22T10:10:00.494Z,95975.16
2023-05-22T10:12:33.676Z,95976.00
2023-05-22T10:15:13.035Z,95969.75
2023-05-22T10:17:52.825Z,95971.38
2023-05-22T10:20:20.816Z,95974.88
2023-05-22T10:22:51.231Z,95968.59
2023-05-22T10:25:35.493Z,95961.53
2023-05-22T10:28:38.985Z,95957.44
2023-05-22T10:31:18.903Z,95956.03
2023-05-22T10:33:56.074Z,95960.91
2023-05-22T10:42:17.712Z,95965.34
2023-05-22T10:44:44.530Z,95955.81
2023-05-22T10:47:16.184Z,95949.78
2023-05-22T10:49:58.735Z,95942.97
2023-05-22T10:52:29.061Z,95950.63
2023-05-22T10:55:02.520Z,95952.50
2023-05-22T10:57:49.636Z,95947.56
2023-05-22T11:00:29.582Z,95941.84
2023-05-22T11:03:17.652Z,95944.09
2023-05-22T11:05:53.722Z,95930.44
2023-05-22T11:08:35.349Z,95931.53
2023-05-22T11:11:12.589Z,95929.66
2023-05-22T11:16:49.800Z,95925.00
2023-05-22T11:19:30.125Z,95929.66
2023-05-22T11:24:46.455Z,95914.38
2023-05-22T11:30:18.412Z,95911.09
2023-05-22T11:32:57.984Z,95910.25
2023-05-22T11:35:36.770Z,95892.25
2023-05-22T11:38:07.569Z,95900.69
2023-05-22T11:40:52.509Z,95899.56
2023-05-22T11:43:43.898Z,95891.63
2023-05-22T11:46:16.217Z,95891.38
2023-05-22T11:48:47.063Z,95882.09
2023-05-22T11:51:14.533Z,95887.81
2023-05-22T11:54:01.840Z,95880.34
2023-05-22T11:59:18.292Z,95886.78
2023-05-22T12:01:52.359Z,95883.31
2023-05-22T12:04:31.960Z,95889.06
2023-05-22T12:07:02.077Z,95884.41
2023-05-22T12:09:31.442Z,95874.25
2023-05-22T12:12:06.883Z,95881.94
2023-05-22T12:14:50.062Z,95887.88
2023-05-22T12:17:21.349Z,95893.06
2023-05-22T12:19:48.559Z,95886.22
2023-05-22T12:25:07.303Z,95889.53
2023-05-22T12:30:27.064Z,95882.16
2023-05-22T12:33:05.469Z,95877.78
2023-05-22T12:35:34.006Z,95863.06
2023-05-22T12:38:05.227Z,95873.16
2023-05-22T12:40:43.288Z,95872.31
2023-05-22T12:43:13.415Z,95872.59
2023-05-22T12:45:53.014Z,95875.88
2023-05-22T12:48:23.413Z,95870.97
2023-05-22T12:51:01.916Z,95866.06
2023-05-22T12:53:34.015Z,95880.78
2023-05-22T12:56:12.827Z,95863.91
2023-05-22T12:58:41.684Z,95873.69
2023-05-22T13:01:09.490Z,95857.88
2023-05-22T13:03:41.580Z,95865.00
2023-05-22T13:06:11.695Z,95873.69
2023-05-22T13:08:39.101Z,95865.25
2023-05-22T13:11:15.689Z,95872.59
2023-05-22T13:13:42.513Z,95861.44
2023-05-22T13:16:12.614Z,95868.25
2023-05-22T13:18:40.704Z,95859.00
2023-05-22T13:21:20.103Z,95866.06
2023-05-22T13:26:28.910Z,95856.25
2023-05-22T13:31:49.054Z,95853.25
2023-05-22T13:34:16.827Z,95854.31
2023-05-22T13:37:06.250Z,95857.31
2023-05-22T13:39:36.425Z,95849.72
2023-05-22T13:42:03.783Z,95854.06
2023-05-22T13:44:33.776Z,95852.97
2023-05-22T13:47:10.721Z,95845.09
2023-05-22T13:52:18.605Z,95855.72
2023-05-22T13:54:48.701Z,95843.41
2023-05-22T13:57:17.736Z,95838.50
2023-05-22T13:59:55.445Z,95847.53
2023-05-22T14:02:26.941Z,95839.34
2023-05-22T14:04:56.448Z,95835.53
2023-05-22T14:10:09.076Z,95828.41
2023-05-22T14:12:42.086Z,95828.69
2023-05-22T14:15:11.974Z,95834.69
2023-05-22T14:17:47.475Z,95822.91
2023-05-22T14:20:19.242Z,95815.84
2023-05-22T14:22:57.799Z,95819.31
2023-05-22T14:25:26.662Z,95816.34
2023-05-22T14:27:53.666Z,95820.69
2023-05-22T14:33:06.528Z,95803.75
2023-05-22T14:35:45.329Z,95810.84
2023-05-22T14:40:53.410Z,95805.91
2023-05-22T14:43:22.190Z,95811.06
2023-05-22T14:45:51.959Z,95811.31
2023-05-22T14:48:23.067Z,95804.78
2023-05-22T14:51:03.202Z,95798.81
2023-05-22T14:53:32.303Z,95798.22
2023-05-22T14:56:11.324Z,95802.28
2023-05-22T14:58:42.447Z,95790.78
2023-05-22T15:01:11.544Z,95789.69
2023-05-22T15:03:41.064Z,95789.38
2023-05-22T15:08:48.449Z,95794.22
2023-05-22T15:11:34.137Z,95795.81
2023-05-22T15:14:06.110Z,95791.41
2023-05-22T15:19:21.715Z,95783.69
2023-05-22T15:24:32.457Z,95778.63
2023-05-22T15:27:02.907Z,95782.69
2023-05-22T15:29:37.156Z,95783.22
2023-05-22T15:32:07.064Z,95777.44
2023-05-22T15:34:37.367Z,95778.28
2023-05-22T15:37:05.454Z,95790.00
2023-05-22T15:39:32.688Z,95782.94
2023-05-22T15:42:06.459Z,95788.94
2023-05-22T15:47:15.467Z,95785.81
2023-05-22T15:49:45.571Z,95792.91
2023-05-22T15:52:14.393Z,95792.91
2023-05-22T15:54:43.601Z,95802.72
2023-05-22T15:57:19.649Z,95798.97
2023-05-22T15:59:55.933Z,95789.75
2023-05-22T16:02:23.849Z,95797.41
2023-05-22T16:04:54.888Z,95796.06
2023-05-22T16:10:15.182Z,95790.16
2023-05-22T16:12:50.465Z,95794.00
2023-05-22T16:15:21.755Z,95802.38
2023-05-22T16:18:02.647Z,95802.09
2023-05-22T16:20:31.299Z,95796.34
2023-05-22T16:23:09.508Z,95803.13
2023-05-22T16:25:38.987Z,95801.47
2023-05-22T16:28:15.587Z,95802.81
2023-05-22T16:30:53.005Z,95794.56
2023-05-22T16:33:22.126Z,95793.41
2023-05-22T16:36:04.506Z,95796.00
2023-05-22T16:38:44.654Z,95803.31
2023-05-22T16:41:11.736Z,95805.72
2023-05-22T16:43:40.638Z,95808.38
2023-05-22T16:46:10.337Z,95810.19
2023-05-22T16:48:37.498Z,95813.13
2023-05-22T16:51:06.797Z,95814.72
2023-05-22T16:53:42.731Z,95810.63
2023-05-22T16:56:20.193Z,95804.91
2023-05-22T16:59:06.802Z,95800.50
2023-05-22T17:01:36.301Z,95812.88
2023-05-22T17:04:04.290Z,95810.94
2023-05-22T17:06:33.383Z,95806.31
2023-05-22T17:09:09.157Z,95808.09
2023-05-22T17:11:42.716Z,95806.25
2023-05-22T17:14:12.488Z,95815.34
2023-05-22T17:16:42.701Z,95806.28
2023-05-22T17:19:11.408Z,95811.91
2023-05-22T17:21:39.974Z,95819.97
2023-05-22T17:24:14.493Z,95809.13
2023-05-22T17:26:44.526Z,95813.13
2023-05-22T17:29:29.099Z,95819.94
2023-05-22T17:32:06.252Z,95823.47
2023-05-22T17:34:35.713Z,95824.16
2023-05-22T17:37:04.237Z,95826.28
2023-05-22T17:39:31.295Z,95833.03
2023-05-22T17:42:01.436Z,95840.38
2023-05-22T17:44:42.685Z,95830.28
2023-05-22T17:47:09.543Z,95840.81
2023-05-22T17:49:48.752Z,95832.84
2023-05-22T17:52:31.944Z,95830.00
2023-05-22T17:55:01.446Z,95839.44
2023-05-22T17:57:28.829Z,95834.94
2023-05-22T17:59:55.920Z,95846.69
2023-05-22T18:07:48.812Z,95851.63
2023-05-22T18:10:15.866Z,95857.47
2023-05-22T18:12:42.905Z,95856.78
2023-05-22T18:15:16.009Z,95849.91
2023-05-22T18:17:54.913Z,95853.72
2023-05-22T18:20:24.894Z,95853.97
2023-05-22T18:22:55.422Z,95860.84
2023-05-22T18:25:25.691Z,95864.03
2023-05-22T18:27:55.720Z,95855.50
2023-05-22T18:33:06.063Z,95862.28
2023-05-22T18:35:42.221Z,95869.59
2023-05-22T18:41:01.274Z,95866.34
2023-05-22T18:43:42.134Z,95872.66
2023-05-22T18:48:56.680Z,95880.91
2023-05-22T18:51:24.016Z,95874.66
2023-05-22T18:54:00.477Z,95881.22
2023-05-22T18:56:38.745Z,95882.03
2023-05-22T18:59:08.324Z,95889.06
2023-05-22T19:01:36.089Z,95897.69
2023-05-22T19:04:16.713Z,95912.06
2023-05-22T19:06:44.271Z,95899.59
2023-05-22T19:09:15.418Z,95913.59
2023-05-22T19:11:49.937Z,95916.38
2023-05-22T19:14:19.509Z,95911.28
2023-05-22T19:16:46.623Z,95921.28
2023-05-22T19:19:15.124Z,95925.31
2023-05-22T19:21:44.853Z,95928.47
2023-05-22T19:24:16.540Z,95928.31
2023-05-22T19:26:48.416Z,95923.31
2023-05-22T19:29:17.718Z,95936.63
2023-05-22T19:31:45.557Z,95937.38
2023-05-22T19:34:12.718Z,95935.75
2023-05-22T19:36:42.554Z,95945.09
2023-05-22T19:39:11.686Z,95949.72
2023-05-22T19:41:38.925Z,95950.59
2023-05-22T19:44:05.968Z,95943.44
2023-05-22T19:46:32.873Z,95952.16
2023-05-22T19:48:59.852Z,95949.50
2023-05-22T19:51:26.828Z,95940.91
2023-05-22T19:53:53.755Z,95954.19
2023-05-22T19:56:20.587Z,95958.34
2023-05-22T19:58:47.382Z,95960.66
2023-05-22T20:01:14.255Z,95955.94
2023-05-22T20:03:41.207Z,95954.53
2023-05-22T20:06:08.183Z,95949.44
2023-05-22T20:08:36.496Z,95953.59
2023-05-22T20:11:03.404Z,95950.13
2023-05-22T20:13:30.384Z,95956.13
2023-05-22T20:15:57.518Z,95955.53
2023-05-22T20:18:24.499Z,95957.84
2023-05-22T20:20:52.308Z,95954.16
2023-05-22T20:23:19.595Z,95956.41
2023-05-22T20:25:46.898Z,95954.97
2023-05-22T20:28:13.738Z,95958.31
2023-05-22T20:35:40.973Z,95968.69
2023-05-22T20:38:10.007Z,95967.69
2023-05-22T20:40:42.425Z,95972.88
2023-05-22T20:43:09.206Z,95976.00
2023-05-22T20:45:36.220Z,95971.47
2023-05-22T20:48:03.100Z,95973.34
2023-05-22T20:50:29.966Z,95969.44
2023-05-22T20:52:57.220Z,95970.44
2023-05-22T20:55:25.605Z,95972.53
2023-05-22T20:57:52.366Z,95963.44
2023-05-22T21:00:19.227Z,95969.88
2023-05-22T21:02:46.109Z,95977.31
2023-05-22T21:05:13.505Z,95975.25
2023-05-22T21:07:40.458Z,95977.75
2023-05-22T21:10:07.873Z,95983.94
2023-05-22T21:12:34.665Z,95986.25
2023-05-22T21:15:01.523Z,95985.81
2023-05-22T21:17:28.389Z,95985.81
2023-05-22T21:19:55.257Z,95987.88
2023-05-22T21:22:22.085Z,95988.31
2023-05-22T21:24:49.038Z,95988.31
2023-05-22T21:27:15.835Z,95984.41
2023-05-22T21:29:42.676Z,95986.69
2023-05-22T21:32:09.531Z,95983.59
2023-05-22T21:34:36.306Z,95992.84
2023-05-22T21:37:03.101Z,95984.16
2023-05-22T21:39:29.897Z,95997.41
2023-05-22T21:41:56.844Z,95987.88
2023-05-22T21:44:23.658Z,95991.38
2023-05-22T21:46:50.499Z,95986.00
2023-05-22T21:49:17.362Z,95990.16
2023-05-22T21:51:44.177Z,95987.88
2023-05-22T21:54:11.050Z,95991.59
2023-05-22T21:56:38.702Z,95987.47
2023-05-22T21:59:05.627Z,95984.97
2023-05-22T22:01:32.561Z,95982.50
2023-05-22T22:03:59.452Z,95986.63
2023-05-22T22:06:26.581Z,95988.06
2023-05-22T22:08:53.503Z,95976.69
2023-05-22T22:11:20.469Z,95976.28
2023-05-22T22:13:47.237Z,95975.84
2023-05-22T22:16:14.816Z,95974.41
2023-05-22T22:18:41.752Z,95978.31
2023-05-22T22:21:08.481Z,95975.63
2023-05-22T22:23:35.282Z,95972.72
2023-05-22T22:26:02.111Z,95973.78
2023-05-22T22:28:29.229Z,95975.63
2023-05-22T22:30:56.045Z,95970.91
2023-05-22T22:33:23.092Z,95975.63
2023-05-22T22:35:49.976Z,95976.25
2023-05-22T22:38:16.754Z,95973.56
2023-05-22T22:40:43.671Z,95973.78
2023-05-22T22:43:10.512Z,95978.28
2023-05-22T22:45:37.391Z,95972.91
2023-05-22T22:48:04.214Z,95969.44
2023-05-22T22:50:31.717Z,95965.94
2023-05-22T22:52:58.625Z,95969.44
2023-05-22T22:55:25.548Z,95967.53
2023-05-22T22:57:53.543Z,95962.38
2023-05-22T23:00:20.758Z,95963.03
2023-05-22T23:02:47.716Z,95954.94
2023-05-22T23:05:15.091Z,95959.69
2023-05-22T23:07:41.940Z,95962.16
2023-05-22T23:10:09.265Z,95957.84
2023-05-22T23:12:36.423Z,95956.19
2023-05-22T23:15:03.844Z,95953.50
2023-05-22T23:17:30.726Z,95957.19
2023-05-22T23:19:57.581Z,95955.53
2023-05-22T23:22:24.393Z,95953.28
2023-05-22T23:24:51.349Z,95949.34
2023-05-22T23:27:18.534Z,95946.66
2023-05-22T23:29:45.414Z,95943.97
2023-05-22T23:32:14.554Z,95941.31
2023-05-22T23:34:42.528Z,95934.06
2023-05-22T23:37:09.653Z,95927.88
2023-05-22T23:39:36.543Z,95928.09
2023-05-22T23:42:03.564Z,95922.50
2023-05-22T23:44:31.165Z,95924.75
2023-05-22T23:46:58.263Z,95920.63
2023-05-22T23:49:25.097Z,95922.50
2023-05-22T23:51:52.050Z,95914.22
2023-05-22T23:54:18.941Z,95917.94
2023-05-22T23:56:45.897Z,95914.22
2023-05-22T23:59:12.713Z,95916.28
